sensor_id;sensor_type;location;lat;lon;timestamp;temperature;humidity
76203;DHT22;64985;46.364;17.008;2022-12-07T00:00:24;0.00;99.90
76203;DHT22;64985;46.364;17.008;2022-12-07T00:03:26;0.10;99.90
76203;DHT22;64985;46.364;17.008;2022-12-07T00:06:28;0.20;99.90
76203;DHT22;64985;46.364;17.008;2022-12-07T00:09:31;0.30;99.90
76203;DHT22;64985;46.364;17.008;2022-12-07T00:12:33;0.30;99.90
76203;DHT22;64985;46.364;17.008;2022-12-07T00:15:35;0.30;99.90
76203;DHT22;64985;46.364;17.008;2022-12-07T00:18:38;0.40;99.90
76203;DHT22;64985;46.364;17.008;2022-12-07T00:21:41;0.40;99.90
76203;DHT22;64985;46.364;17.008;2022-12-07T00:24:43;0.40;99.90
76203;DHT22;64985;46.364;17.008;2022-12-07T00:27:45;0.40;99.90
76203;DHT22;64985;46.364;17.008;2022-12-07T00:30:47;0.40;99.90
76203;DHT22;64985;46.364;17.008;2022-12-07T00:33:50;0.50;99.90
76203;DHT22;64985;46.364;17.008;2022-12-07T00:36:52;0.50;99.90
76203;DHT22;64985;46.364;17.008;2022-12-07T00:39:54;0.50;99.90
76203;DHT22;64985;46.364;17.008;2022-12-07T00:42:56;0.50;99.90
76203;DHT22;64985;46.364;17.008;2022-12-07T00:45:58;0.50;99.90
76203;DHT22;64985;46.364;17.008;2022-12-07T00:49:00;0.50;99.90
76203;DHT22;64985;46.364;17.008;2022-12-07T00:52:03;0.50;99.90
76203;DHT22;64985;46.364;17.008;2022-12-07T00:55:05;0.60;99.90
76203;DHT22;64985;46.364;17.008;2022-12-07T00:58:08;0.60;99.90
76203;DHT22;64985;46.364;17.008;2022-12-07T01:01:11;0.60;99.90
76203;DHT22;64985;46.364;17.008;2022-12-07T01:04:13;0.60;99.90
76203;DHT22;64985;46.364;17.008;2022-12-07T01:07:15;0.60;99.90
76203;DHT22;64985;46.364;17.008;2022-12-07T01:10:17;0.70;99.90
76203;DHT22;64985;46.364;17.008;2022-12-07T01:13:19;0.70;99.90
76203;DHT22;64985;46.364;17.008;2022-12-07T01:16:24;0.70;99.90
76203;DHT22;64985;46.364;17.008;2022-12-07T01:19:26;0.70;99.90
76203;DHT22;64985;46.364;17.008;2022-12-07T01:22:28;0.70;99.90
76203;DHT22;64985;46.364;17.008;2022-12-07T01:25:31;0.60;99.90
76203;DHT22;64985;46.364;17.008;2022-12-07T01:28:33;0.60;99.90
76203;DHT22;64985;46.364;17.008;2022-12-07T01:31:36;0.70;99.90
76203;DHT22;64985;46.364;17.008;2022-12-07T01:34:38;0.70;99.90
76203;DHT22;64985;46.364;17.008;2022-12-07T01:37:40;0.70;99.90
76203;DHT22;64985;46.364;17.008;2022-12-07T01:40:42;0.70;99.90
76203;DHT22;64985;46.364;17.008;2022-12-07T01:47:23;0.70;99.90
76203;DHT22;64985;46.364;17.008;2022-12-07T01:50:27;0.70;99.90
76203;DHT22;64985;46.364;17.008;2022-12-07T01:53:31;0.70;99.90
76203;DHT22;64985;46.364;17.008;2022-12-07T01:56:36;0.80;99.90
76203;DHT22;64985;46.364;17.008;2022-12-07T01:59:39;0.80;99.90
76203;DHT22;64985;46.364;17.008;2022-12-07T02:02:48;0.80;99.90
76203;DHT22;64985;46.364;17.008;2022-12-07T02:05:53;0.90;99.90
76203;DHT22;64985;46.364;17.008;2022-12-07T02:08:56;0.90;99.90
76203;DHT22;64985;46.364;17.008;2022-12-07T02:11:58;1.00;99.90
76203;DHT22;64985;46.364;17.008;2022-12-07T02:15:00;1.00;99.90
76203;DHT22;64985;46.364;17.008;2022-12-07T02:18:13;1.00;99.90
76203;DHT22;64985;46.364;17.008;2022-12-07T02:28:26;1.00;99.90
76203;DHT22;64985;46.364;17.008;2022-12-07T02:31:31;1.00;99.90
76203;DHT22;64985;46.364;17.008;2022-12-07T02:35:05;1.00;99.90
76203;DHT22;64985;46.364;17.008;2022-12-07T02:38:11;1.00;99.90
76203;DHT22;64985;46.364;17.008;2022-12-07T02:41:28;1.00;99.90
76203;DHT22;64985;46.364;17.008;2022-12-07T02:44:32;1.10;99.90
76203;DHT22;64985;46.364;17.008;2022-12-07T02:47:35;1.10;99.90
76203;DHT22;64985;46.364;17.008;2022-12-07T02:50:38;1.10;99.90
76203;DHT22;64985;46.364;17.008;2022-12-07T02:53:44;1.20;99.90
76203;DHT22;64985;46.364;17.008;2022-12-07T03:00:19;1.20;99.90
76203;DHT22;64985;46.364;17.008;2022-12-07T03:03:23;1.30;99.90
76203;DHT22;64985;46.364;17.008;2022-12-07T03:06:35;1.30;99.90
76203;DHT22;64985;46.364;17.008;2022-12-07T03:10:16;1.30;99.90
76203;DHT22;64985;46.364;17.008;2022-12-07T03:13:18;1.30;99.90
76203;DHT22;64985;46.364;17.008;2022-12-07T03:16:27;1.30;99.90
76203;DHT22;64985;46.364;17.008;2022-12-07T03:19:33;1.30;99.90
76203;DHT22;64985;46.364;17.008;2022-12-07T03:22:38;1.30;99.90
76203;DHT22;64985;46.364;17.008;2022-12-07T03:25:45;1.30;99.90
76203;DHT22;64985;46.364;17.008;2022-12-07T03:28:52;1.30;99.90
76203;DHT22;64985;46.364;17.008;2022-12-07T03:32:02;1.30;99.90
76203;DHT22;64985;46.364;17.008;2022-12-07T03:38:20;1.30;99.90
76203;DHT22;64985;46.364;17.008;2022-12-07T03:41:26;1.30;99.90
76203;DHT22;64985;46.364;17.008;2022-12-07T03:44:31;1.40;99.90
76203;DHT22;64985;46.364;17.008;2022-12-07T03:51:30;1.40;99.90
76203;DHT22;64985;46.364;17.008;2022-12-07T03:54:39;1.40;99.90
76203;DHT22;64985;46.364;17.008;2022-12-07T03:57:45;1.40;99.90
76203;DHT22;64985;46.364;17.008;2022-12-07T04:00:50;1.50;99.90
76203;DHT22;64985;46.364;17.008;2022-12-07T04:03:52;1.50;99.90
76203;DHT22;64985;46.364;17.008;2022-12-07T04:06:54;1.50;99.90
76203;DHT22;64985;46.364;17.008;2022-12-07T04:09:56;1.50;99.90
76203;DHT22;64985;46.364;17.008;2022-12-07T04:12:59;1.50;99.90
76203;DHT22;64985;46.364;17.008;2022-12-07T04:16:01;1.50;99.90
76203;DHT22;64985;46.364;17.008;2022-12-07T04:19:04;1.50;99.90
76203;DHT22;64985;46.364;17.008;2022-12-07T04:22:06;1.50;99.90
76203;DHT22;64985;46.364;17.008;2022-12-07T04:25:08;1.50;99.90
76203;DHT22;64985;46.364;17.008;2022-12-07T04:28:10;1.50;99.90
76203;DHT22;64985;46.364;17.008;2022-12-07T04:31:13;1.50;99.90
76203;DHT22;64985;46.364;17.008;2022-12-07T04:34:16;1.40;99.90
76203;DHT22;64985;46.364;17.008;2022-12-07T04:37:18;1.50;99.90
76203;DHT22;64985;46.364;17.008;2022-12-07T04:40:20;1.50;99.90
76203;DHT22;64985;46.364;17.008;2022-12-07T04:43:22;1.40;99.90
76203;DHT22;64985;46.364;17.008;2022-12-07T04:46:25;1.40;99.90
76203;DHT22;64985;46.364;17.008;2022-12-07T04:49:28;1.40;99.90
76203;DHT22;64985;46.364;17.008;2022-12-07T04:52:32;1.50;99.90
76203;DHT22;64985;46.364;17.008;2022-12-07T04:55:34;1.50;99.90
76203;DHT22;64985;46.364;17.008;2022-12-07T04:58:37;1.50;99.90
76203;DHT22;64985;46.364;17.008;2022-12-07T05:01:40;1.50;99.90
76203;DHT22;64985;46.364;17.008;2022-12-07T05:04:42;1.40;99.90
76203;DHT22;64985;46.364;17.008;2022-12-07T05:07:44;1.40;99.90
76203;DHT22;64985;46.364;17.008;2022-12-07T05:10:48;1.50;99.90
76203;DHT22;64985;46.364;17.008;2022-12-07T05:13:51;1.50;99.90
76203;DHT22;64985;46.364;17.008;2022-12-07T05:16:53;1.50;99.90
76203;DHT22;64985;46.364;17.008;2022-12-07T05:19:55;1.50;99.90
76203;DHT22;64985;46.364;17.008;2022-12-07T05:22:57;1.60;99.90
76203;DHT22;64985;46.364;17.008;2022-12-07T05:26:00;1.60;99.90
76203;DHT22;64985;46.364;17.008;2022-12-07T05:29:02;1.60;99.90
76203;DHT22;64985;46.364;17.008;2022-12-07T05:32:04;1.60;99.90
76203;DHT22;64985;46.364;17.008;2022-12-07T05:35:07;1.60;99.90
76203;DHT22;64985;46.364;17.008;2022-12-07T05:38:09;1.50;99.90
76203;DHT22;64985;46.364;17.008;2022-12-07T05:41:17;1.60;99.90
76203;DHT22;64985;46.364;17.008;2022-12-07T05:44:45;1.60;99.90
76203;DHT22;64985;46.364;17.008;2022-12-07T05:47:47;1.50;99.90
76203;DHT22;64985;46.364;17.008;2022-12-07T05:50:50;1.60;99.90
76203;DHT22;64985;46.364;17.008;2022-12-07T05:53:52;1.60;99.90
76203;DHT22;64985;46.364;17.008;2022-12-07T05:56:55;1.60;99.90
76203;DHT22;64985;46.364;17.008;2022-12-07T05:59:57;1.60;99.90
76203;DHT22;64985;46.364;17.008;2022-12-07T06:02:59;1.60;99.90
76203;DHT22;64985;46.364;17.008;2022-12-07T06:06:02;1.50;99.90
76203;DHT22;64985;46.364;17.008;2022-12-07T06:09:04;1.60;99.90
76203;DHT22;64985;46.364;17.008;2022-12-07T06:12:08;1.60;99.90
76203;DHT22;64985;46.364;17.008;2022-12-07T06:15:36;1.60;99.90
76203;DHT22;64985;46.364;17.008;2022-12-07T06:18:39;1.60;99.90
76203;DHT22;64985;46.364;17.008;2022-12-07T06:21:41;1.70;99.90
76203;DHT22;64985;46.364;17.008;2022-12-07T06:24:44;1.70;99.90
76203;DHT22;64985;46.364;17.008;2022-12-07T06:27:46;1.70;99.90
76203;DHT22;64985;46.364;17.008;2022-12-07T06:30:59;1.70;99.90
76203;DHT22;64985;46.364;17.008;2022-12-07T06:34:04;1.70;99.90
76203;DHT22;64985;46.364;17.008;2022-12-07T06:37:06;1.70;99.90
76203;DHT22;64985;46.364;17.008;2022-12-07T06:40:09;1.70;99.90
76203;DHT22;64985;46.364;17.008;2022-12-07T06:43:12;1.70;99.90
76203;DHT22;64985;46.364;17.008;2022-12-07T06:46:15;1.70;99.90
76203;DHT22;64985;46.364;17.008;2022-12-07T06:49:17;1.70;99.90
76203;DHT22;64985;46.364;17.008;2022-12-07T06:52:19;1.70;99.90
76203;DHT22;64985;46.364;17.008;2022-12-07T06:55:21;1.80;99.90
76203;DHT22;64985;46.364;17.008;2022-12-07T06:58:24;1.80;99.90
76203;DHT22;64985;46.364;17.008;2022-12-07T07:01:26;1.90;99.90
76203;DHT22;64985;46.364;17.008;2022-12-07T07:04:28;1.90;99.90
76203;DHT22;64985;46.364;17.008;2022-12-07T07:07:30;2.00;99.90
76203;DHT22;64985;46.364;17.008;2022-12-07T07:10:42;2.10;99.90
76203;DHT22;64985;46.364;17.008;2022-12-07T07:13:45;2.10;99.90
76203;DHT22;64985;46.364;17.008;2022-12-07T07:16:47;2.10;99.90
76203;DHT22;64985;46.364;17.008;2022-12-07T07:19:49;2.10;99.90
76203;DHT22;64985;46.364;17.008;2022-12-07T07:22:54;2.10;99.90
76203;DHT22;64985;46.364;17.008;2022-12-07T07:25:56;2.10;99.90
76203;DHT22;64985;46.364;17.008;2022-12-07T07:28:58;2.10;99.90
76203;DHT22;64985;46.364;17.008;2022-12-07T07:32:01;2.20;99.90
76203;DHT22;64985;46.364;17.008;2022-12-07T07:35:08;2.20;99.90
76203;DHT22;64985;46.364;17.008;2022-12-07T07:38:10;2.30;99.90
76203;DHT22;64985;46.364;17.008;2022-12-07T07:41:12;2.40;99.90
76203;DHT22;64985;46.364;17.008;2022-12-07T07:44:14;2.50;99.90
76203;DHT22;64985;46.364;17.008;2022-12-07T07:47:16;2.50;99.90
76203;DHT22;64985;46.364;17.008;2022-12-07T07:50:19;2.60;99.90
76203;DHT22;64985;46.364;17.008;2022-12-07T07:53:21;2.70;99.90
76203;DHT22;64985;46.364;17.008;2022-12-07T07:56:24;2.70;99.90
76203;DHT22;64985;46.364;17.008;2022-12-07T07:59:26;2.80;99.90
76203;DHT22;64985;46.364;17.008;2022-12-07T08:02:28;2.80;99.90
76203;DHT22;64985;46.364;17.008;2022-12-07T08:05:31;2.80;99.90
76203;DHT22;64985;46.364;17.008;2022-12-07T08:08:33;2.80;99.90
76203;DHT22;64985;46.364;17.008;2022-12-07T08:11:35;2.80;99.90
76203;DHT22;64985;46.364;17.008;2022-12-07T08:14:38;2.90;99.90
76203;DHT22;64985;46.364;17.008;2022-12-07T08:17:40;3.00;99.90
76203;DHT22;64985;46.364;17.008;2022-12-07T08:20:42;3.00;99.90
76203;DHT22;64985;46.364;17.008;2022-12-07T08:23:44;3.00;99.90
76203;DHT22;64985;46.364;17.008;2022-12-07T08:26:46;3.00;99.90
76203;DHT22;64985;46.364;17.008;2022-12-07T08:29:48;3.10;99.90
76203;DHT22;64985;46.364;17.008;2022-12-07T08:32:50;3.20;99.90
76203;DHT22;64985;46.364;17.008;2022-12-07T08:35:53;3.20;99.90
76203;DHT22;64985;46.364;17.008;2022-12-07T08:38:55;3.30;99.90
76203;DHT22;64985;46.364;17.008;2022-12-07T08:42:17;3.40;99.90
76203;DHT22;64985;46.364;17.008;2022-12-07T08:45:20;3.40;99.90
76203;DHT22;64985;46.364;17.008;2022-12-07T08:48:27;3.50;99.90
76203;DHT22;64985;46.364;17.008;2022-12-07T08:51:31;3.50;99.90
76203;DHT22;64985;46.364;17.008;2022-12-07T08:54:35;3.60;99.90
76203;DHT22;64985;46.364;17.008;2022-12-07T08:57:39;3.60;99.90
76203;DHT22;64985;46.364;17.008;2022-12-07T09:00:42;3.80;99.90
76203;DHT22;64985;46.364;17.008;2022-12-07T09:03:45;4.00;99.90
76203;DHT22;64985;46.364;17.008;2022-12-07T09:06:47;3.90;99.90
76203;DHT22;64985;46.364;17.008;2022-12-07T09:09:49;4.20;99.90
76203;DHT22;64985;46.364;17.008;2022-12-07T09:12:51;4.70;99.90
76203;DHT22;64985;46.364;17.008;2022-12-07T09:15:54;5.20;99.90
76203;DHT22;64985;46.364;17.008;2022-12-07T09:18:56;6.10;99.90
76203;DHT22;64985;46.364;17.008;2022-12-07T09:21:58;6.80;99.90
76203;DHT22;64985;46.364;17.008;2022-12-07T09:25:01;7.20;99.90
76203;DHT22;64985;46.364;17.008;2022-12-07T09:28:03;7.50;99.90
76203;DHT22;64985;46.364;17.008;2022-12-07T09:31:06;7.50;99.90
76203;DHT22;64985;46.364;17.008;2022-12-07T09:34:26;7.40;99.90
76203;DHT22;64985;46.364;17.008;2022-12-07T09:37:28;7.20;99.90
76203;DHT22;64985;46.364;17.008;2022-12-07T09:40:33;7.00;99.90
76203;DHT22;64985;46.364;17.008;2022-12-07T09:43:36;6.90;99.90
76203;DHT22;64985;46.364;17.008;2022-12-07T09:46:42;6.90;99.90
76203;DHT22;64985;46.364;17.008;2022-12-07T09:49:45;7.00;99.90
76203;DHT22;64985;46.364;17.008;2022-12-07T09:52:48;7.00;99.90
76203;DHT22;64985;46.364;17.008;2022-12-07T09:55:51;7.00;99.90
76203;DHT22;64985;46.364;17.008;2022-12-07T09:58:59;7.10;99.90
76203;DHT22;64985;46.364;17.008;2022-12-07T10:05:36;7.00;99.90
76203;DHT22;64985;46.364;17.008;2022-12-07T10:08:40;6.90;99.90
76203;DHT22;64985;46.364;17.008;2022-12-07T10:12:06;7.00;99.90
76203;DHT22;64985;46.364;17.008;2022-12-07T10:15:10;6.90;99.90
76203;DHT22;64985;46.364;17.008;2022-12-07T10:18:25;6.80;99.90
76203;DHT22;64985;46.364;17.008;2022-12-07T10:21:28;6.70;99.90
76203;DHT22;64985;46.364;17.008;2022-12-07T10:24:30;6.50;99.90
76203;DHT22;64985;46.364;17.008;2022-12-07T10:27:32;6.40;99.90
76203;DHT22;64985;46.364;17.008;2022-12-07T10:30:58;6.30;99.90
76203;DHT22;64985;46.364;17.008;2022-12-07T10:34:01;6.20;99.90
76203;DHT22;64985;46.364;17.008;2022-12-07T10:43:26;6.10;99.90
76203;DHT22;64985;46.364;17.008;2022-12-07T10:51:02;6.20;99.90
76203;DHT22;64985;46.364;17.008;2022-12-07T11:00:46;6.40;99.90
76203;DHT22;64985;46.364;17.008;2022-12-07T11:10:45;6.10;99.90
76203;DHT22;64985;46.364;17.008;2022-12-07T11:24:21;5.90;99.90
76203;DHT22;64985;46.364;17.008;2022-12-07T11:27:40;6.00;99.90
76203;DHT22;64985;46.364;17.008;2022-12-07T11:34:04;5.80;99.90
76203;DHT22;64985;46.364;17.008;2022-12-07T11:37:17;5.90;99.90
76203;DHT22;64985;46.364;17.008;2022-12-07T11:40:28;6.00;99.90
76203;DHT22;64985;46.364;17.008;2022-12-07T11:43:34;6.10;99.90
76203;DHT22;64985;46.364;17.008;2022-12-07T11:46:50;6.00;99.90
76203;DHT22;64985;46.364;17.008;2022-12-07T11:50:18;5.80;99.90
76203;DHT22;64985;46.364;17.008;2022-12-07T11:56:39;5.70;99.90
76203;DHT22;64985;46.364;17.008;2022-12-07T11:59:47;5.80;99.90
76203;DHT22;64985;46.364;17.008;2022-12-07T12:02:58;5.80;99.90
76203;DHT22;64985;46.364;17.008;2022-12-07T12:06:02;5.80;99.90
76203;DHT22;64985;46.364;17.008;2022-12-07T12:09:14;5.80;99.90
76203;DHT22;64985;46.364;17.008;2022-12-07T12:16:20;5.80;99.90
76203;DHT22;64985;46.364;17.008;2022-12-07T12:26:26;6.00;99.90
76203;DHT22;64985;46.364;17.008;2022-12-07T12:29:36;6.00;99.90
76203;DHT22;64985;46.364;17.008;2022-12-07T12:32:41;6.00;99.90
76203;DHT22;64985;46.364;17.008;2022-12-07T12:35:43;5.90;99.90
76203;DHT22;64985;46.364;17.008;2022-12-07T12:41:56;5.90;99.90
76203;DHT22;64985;46.364;17.008;2022-12-07T12:45:22;6.00;99.90
76203;DHT22;64985;46.364;17.008;2022-12-07T12:48:29;6.00;99.90
76203;DHT22;64985;46.364;17.008;2022-12-07T12:51:37;6.10;99.90
76203;DHT22;64985;46.364;17.008;2022-12-07T12:55:22;6.20;99.90
76203;DHT22;64985;46.364;17.008;2022-12-07T12:58:33;6.20;99.90
76203;DHT22;64985;46.364;17.008;2022-12-07T13:01:38;6.10;99.90
76203;DHT22;64985;46.364;17.008;2022-12-07T13:08:25;6.10;99.90
76203;DHT22;64985;46.364;17.008;2022-12-07T13:11:40;6.20;99.90
76203;DHT22;64985;46.364;17.008;2022-12-07T13:14:56;6.20;99.90
76203;DHT22;64985;46.364;17.008;2022-12-07T13:18:01;6.30;99.90
76203;DHT22;64985;46.364;17.008;2022-12-07T13:24:10;6.20;99.90
76203;DHT22;64985;46.364;17.008;2022-12-07T13:27:14;6.20;99.90
76203;DHT22;64985;46.364;17.008;2022-12-07T13:30:19;6.10;99.90
76203;DHT22;64985;46.364;17.008;2022-12-07T13:33:22;6.00;99.90
76203;DHT22;64985;46.364;17.008;2022-12-07T13:36:37;6.00;99.90
76203;DHT22;64985;46.364;17.008;2022-12-07T13:39:50;6.30;99.90
76203;DHT22;64985;46.364;17.008;2022-12-07T13:43:03;7.10;99.90
76203;DHT22;64985;46.364;17.008;2022-12-07T13:46:07;7.70;99.90
76203;DHT22;64985;46.364;17.008;2022-12-07T13:49:29;8.50;99.90
76203;DHT22;64985;46.364;17.008;2022-12-07T13:52:31;9.10;99.30
76203;DHT22;64985;46.364;17.008;2022-12-07T13:55:33;9.60;95.90
76203;DHT22;64985;46.364;17.008;2022-12-07T13:58:36;10.10;95.10
76203;DHT22;64985;46.364;17.008;2022-12-07T14:01:38;10.10;93.00
76203;DHT22;64985;46.364;17.008;2022-12-07T14:04:40;9.70;94.30
76203;DHT22;64985;46.364;17.008;2022-12-07T14:07:54;9.60;94.70
76203;DHT22;64985;46.364;17.008;2022-12-07T14:10:57;10.10;92.20
76203;DHT22;64985;46.364;17.008;2022-12-07T14:14:01;10.40;91.40
76203;DHT22;64985;46.364;17.008;2022-12-07T14:17:20;10.10;91.40
76203;DHT22;64985;46.364;17.008;2022-12-07T14:20:36;9.10;94.00
76203;DHT22;64985;46.364;17.008;2022-12-07T14:23:40;8.40;96.70
76203;DHT22;64985;46.364;17.008;2022-12-07T14:26:43;7.70;99.90
76203;DHT22;64985;46.364;17.008;2022-12-07T14:29:46;7.20;99.90
76203;DHT22;64985;46.364;17.008;2022-12-07T14:33:15;6.70;99.90
76203;DHT22;64985;46.364;17.008;2022-12-07T14:36:17;6.20;99.90
76203;DHT22;64985;46.364;17.008;2022-12-07T14:39:20;6.10;99.90
76203;DHT22;64985;46.364;17.008;2022-12-07T14:42:27;5.90;99.90
76203;DHT22;64985;46.364;17.008;2022-12-07T14:45:31;5.60;99.90
76203;DHT22;64985;46.364;17.008;2022-12-07T14:48:33;5.30;99.90
76203;DHT22;64985;46.364;17.008;2022-12-07T14:51:55;5.10;99.90
76203;DHT22;64985;46.364;17.008;2022-12-07T14:55:26;4.90;99.90
76203;DHT22;64985;46.364;17.008;2022-12-07T14:58:29;4.80;99.90
76203;DHT22;64985;46.364;17.008;2022-12-07T15:01:31;4.70;99.90
76203;DHT22;64985;46.364;17.008;2022-12-07T15:04:33;4.60;99.90
76203;DHT22;64985;46.364;17.008;2022-12-07T15:07:36;4.60;99.90
76203;DHT22;64985;46.364;17.008;2022-12-07T15:10:38;4.50;99.90
76203;DHT22;64985;46.364;17.008;2022-12-07T15:13:41;4.30;99.90
76203;DHT22;64985;46.364;17.008;2022-12-07T15:17:02;4.20;99.90
76203;DHT22;64985;46.364;17.008;2022-12-07T15:20:24;4.10;99.90
76203;DHT22;64985;46.364;17.008;2022-12-07T15:23:26;3.90;99.90
76203;DHT22;64985;46.364;17.008;2022-12-07T15:26:28;3.80;99.90
76203;DHT22;64985;46.364;17.008;2022-12-07T15:29:30;3.70;99.90
76203;DHT22;64985;46.364;17.008;2022-12-07T15:32:32;3.50;99.90
76203;DHT22;64985;46.364;17.008;2022-12-07T15:35:39;3.30;99.90
76203;DHT22;64985;46.364;17.008;2022-12-07T15:38:41;3.10;99.90
76203;DHT22;64985;46.364;17.008;2022-12-07T15:42:04;3.00;99.90
76203;DHT22;64985;46.364;17.008;2022-12-07T15:45:08;2.80;99.90
76203;DHT22;64985;46.364;17.008;2022-12-07T15:48:10;2.60;99.90
76203;DHT22;64985;46.364;17.008;2022-12-07T15:51:30;2.50;99.90
76203;DHT22;64985;46.364;17.008;2022-12-07T15:54:32;2.40;99.90
76203;DHT22;64985;46.364;17.008;2022-12-07T15:57:36;2.30;99.90
76203;DHT22;64985;46.364;17.008;2022-12-07T16:00:38;2.20;99.90
76203;DHT22;64985;46.364;17.008;2022-12-07T16:03:41;2.10;99.90
76203;DHT22;64985;46.364;17.008;2022-12-07T16:06:43;1.90;99.90
76203;DHT22;64985;46.364;17.008;2022-12-07T16:09:46;1.90;99.90
76203;DHT22;64985;46.364;17.008;2022-12-07T16:12:49;1.80;99.90
76203;DHT22;64985;46.364;17.008;2022-12-07T16:15:51;1.80;99.90
76203;DHT22;64985;46.364;17.008;2022-12-07T16:18:53;1.70;99.90
76203;DHT22;64985;46.364;17.008;2022-12-07T16:21:55;1.60;99.90
76203;DHT22;64985;46.364;17.008;2022-12-07T16:24:58;1.40;99.90
76203;DHT22;64985;46.364;17.008;2022-12-07T16:28:00;1.40;99.90
76203;DHT22;64985;46.364;17.008;2022-12-07T16:31:11;1.40;99.90
76203;DHT22;64985;46.364;17.008;2022-12-07T16:34:13;1.50;99.90
76203;DHT22;64985;46.364;17.008;2022-12-07T16:37:15;1.60;99.90
76203;DHT22;64985;46.364;17.008;2022-12-07T16:40:18;1.60;99.90
76203;DHT22;64985;46.364;17.008;2022-12-07T16:43:20;1.70;99.90
76203;DHT22;64985;46.364;17.008;2022-12-07T16:46:23;1.80;99.90
76203;DHT22;64985;46.364;17.008;2022-12-07T16:49:25;1.80;99.90
76203;DHT22;64985;46.364;17.008;2022-12-07T16:52:27;1.70;99.90
76203;DHT22;64985;46.364;17.008;2022-12-07T16:55:29;1.70;99.90
76203;DHT22;64985;46.364;17.008;2022-12-07T16:58:31;1.70;99.90
76203;DHT22;64985;46.364;17.008;2022-12-07T17:01:35;1.70;99.90
76203;DHT22;64985;46.364;17.008;2022-12-07T17:04:38;1.70;99.90
76203;DHT22;64985;46.364;17.008;2022-12-07T17:07:44;1.70;99.90
76203;DHT22;64985;46.364;17.008;2022-12-07T17:10:46;1.60;99.90
76203;DHT22;64985;46.364;17.008;2022-12-07T17:13:48;1.60;99.90
76203;DHT22;64985;46.364;17.008;2022-12-07T17:17:09;1.70;99.90
76203;DHT22;64985;46.364;17.008;2022-12-07T17:20:12;1.70;99.90
76203;DHT22;64985;46.364;17.008;2022-12-07T17:23:15;1.60;99.90
76203;DHT22;64985;46.364;17.008;2022-12-07T17:26:20;1.70;99.90
76203;DHT22;64985;46.364;17.008;2022-12-07T17:29:23;1.60;99.90
76203;DHT22;64985;46.364;17.008;2022-12-07T17:32:25;1.60;99.90
76203;DHT22;64985;46.364;17.008;2022-12-07T17:35:27;1.60;99.90
76203;DHT22;64985;46.364;17.008;2022-12-07T17:38:30;1.60;99.90
76203;DHT22;64985;46.364;17.008;2022-12-07T17:41:32;1.70;99.90
76203;DHT22;64985;46.364;17.008;2022-12-07T17:44:53;1.70;99.90
76203;DHT22;64985;46.364;17.008;2022-12-07T17:47:55;1.50;99.90
76203;DHT22;64985;46.364;17.008;2022-12-07T17:51:01;1.60;99.90
76203;DHT22;64985;46.364;17.008;2022-12-07T17:54:23;1.60;99.90
76203;DHT22;64985;46.364;17.008;2022-12-07T17:57:25;1.60;99.90
76203;DHT22;64985;46.364;17.008;2022-12-07T18:00:27;1.60;99.90
76203;DHT22;64985;46.364;17.008;2022-12-07T18:03:31;1.60;99.90
76203;DHT22;64985;46.364;17.008;2022-12-07T18:06:34;1.60;99.90
76203;DHT22;64985;46.364;17.008;2022-12-07T18:09:36;1.60;99.90
76203;DHT22;64985;46.364;17.008;2022-12-07T18:12:39;1.50;99.90
76203;DHT22;64985;46.364;17.008;2022-12-07T18:15:43;1.40;99.90
76203;DHT22;64985;46.364;17.008;2022-12-07T18:18:46;1.20;99.90
76203;DHT22;64985;46.364;17.008;2022-12-07T18:21:53;1.10;99.90
76203;DHT22;64985;46.364;17.008;2022-12-07T18:24:56;1.00;99.90
76203;DHT22;64985;46.364;17.008;2022-12-07T18:27:58;0.90;99.90
76203;DHT22;64985;46.364;17.008;2022-12-07T18:31:01;1.00;99.90
76203;DHT22;64985;46.364;17.008;2022-12-07T18:34:19;0.90;99.90
76203;DHT22;64985;46.364;17.008;2022-12-07T18:37:21;0.80;99.90
76203;DHT22;64985;46.364;17.008;2022-12-07T18:40:28;0.90;99.90
76203;DHT22;64985;46.364;17.008;2022-12-07T18:43:31;1.00;99.90
76203;DHT22;64985;46.364;17.008;2022-12-07T18:46:35;1.00;99.90
76203;DHT22;64985;46.364;17.008;2022-12-07T18:49:38;1.00;99.90
76203;DHT22;64985;46.364;17.008;2022-12-07T18:52:40;1.00;99.90
76203;DHT22;64985;46.364;17.008;2022-12-07T18:55:42;0.90;99.90
76203;DHT22;64985;46.364;17.008;2022-12-07T18:58:53;0.90;99.90
76203;DHT22;64985;46.364;17.008;2022-12-07T19:02:16;1.00;99.90
76203;DHT22;64985;46.364;17.008;2022-12-07T19:05:21;1.10;99.90
76203;DHT22;64985;46.364;17.008;2022-12-07T19:08:28;1.00;99.90
76203;DHT22;64985;46.364;17.008;2022-12-07T19:11:32;1.00;99.90
76203;DHT22;64985;46.364;17.008;2022-12-07T19:14:53;0.90;99.90
76203;DHT22;64985;46.364;17.008;2022-12-07T19:18:00;0.90;99.90
76203;DHT22;64985;46.364;17.008;2022-12-07T19:21:03;0.90;99.90
76203;DHT22;64985;46.364;17.008;2022-12-07T19:24:06;0.80;99.90
76203;DHT22;64985;46.364;17.008;2022-12-07T19:27:10;0.80;99.90
76203;DHT22;64985;46.364;17.008;2022-12-07T19:30:12;0.80;99.90
76203;DHT22;64985;46.364;17.008;2022-12-07T19:33:15;0.80;99.90
76203;DHT22;64985;46.364;17.008;2022-12-07T19:36:19;0.70;99.90
76203;DHT22;64985;46.364;17.008;2022-12-07T19:39:23;0.70;99.90
76203;DHT22;64985;46.364;17.008;2022-12-07T19:42:26;0.70;99.90
76203;DHT22;64985;46.364;17.008;2022-12-07T19:45:29;0.60;99.90
76203;DHT22;64985;46.364;17.008;2022-12-07T19:48:34;0.60;99.90
76203;DHT22;64985;46.364;17.008;2022-12-07T19:51:37;0.70;99.90
76203;DHT22;64985;46.364;17.008;2022-12-07T19:54:40;0.70;99.90
76203;DHT22;64985;46.364;17.008;2022-12-07T19:57:46;0.70;99.90
76203;DHT22;64985;46.364;17.008;2022-12-07T20:00:49;0.70;99.90
76203;DHT22;64985;46.364;17.008;2022-12-07T20:03:52;0.70;99.90
76203;DHT22;64985;46.364;17.008;2022-12-07T20:06:58;0.80;99.90
76203;DHT22;64985;46.364;17.008;2022-12-07T20:10:02;0.70;99.90
76203;DHT22;64985;46.364;17.008;2022-12-07T20:13:07;0.80;99.90
76203;DHT22;64985;46.364;17.008;2022-12-07T20:16:28;0.90;99.90
76203;DHT22;64985;46.364;17.008;2022-12-07T20:19:34;0.80;99.90
76203;DHT22;64985;46.364;17.008;2022-12-07T20:22:37;0.90;99.90
76203;DHT22;64985;46.364;17.008;2022-12-07T20:25:39;0.80;99.90
76203;DHT22;64985;46.364;17.008;2022-12-07T20:28:43;0.80;99.90
76203;DHT22;64985;46.364;17.008;2022-12-07T20:31:50;0.80;99.90
76203;DHT22;64985;46.364;17.008;2022-12-07T20:34:56;0.80;99.90
76203;DHT22;64985;46.364;17.008;2022-12-07T20:37:59;0.90;99.90
76203;DHT22;64985;46.364;17.008;2022-12-07T20:41:04;0.90;99.90
76203;DHT22;64985;46.364;17.008;2022-12-07T20:44:09;0.80;99.90
76203;DHT22;64985;46.364;17.008;2022-12-07T20:47:12;0.80;99.90
76203;DHT22;64985;46.364;17.008;2022-12-07T20:50:15;0.80;99.90
76203;DHT22;64985;46.364;17.008;2022-12-07T20:53:17;0.80;99.90
76203;DHT22;64985;46.364;17.008;2022-12-07T20:56:28;0.80;99.90